createdAt,value
2023-02-19T00:01:26.181Z,94479.44
2023-02-19T00:03:58.119Z,94474.75
2023-02-19T00:06:28.078Z,94482.25
2023-02-19T00:08:55.745Z,94477.13
2023-02-19T00:11:25.209Z,94483.38
2023-02-19T00:13:55.324Z,94476.34
2023-02-19T00:16:23.401Z,94479.44
2023-02-19T00:18:50.194Z,94477.75
2023-02-19T00:21:17.607Z,94474.94
2023-02-19T00:23:48.539Z,94472.66
2023-02-19T00:26:18.416Z,94465.63
2023-02-19T00:28:46.556Z,94470.22
2023-02-19T00:31:32.969Z,94467.13
2023-02-19T00:34:05.117Z,94467.59
2023-02-19T00:36:33.951Z,94470.31
2023-02-19T00:39:00.615Z,94462.91
2023-02-19T00:41:28.938Z,94465.03
2023-02-19T00:43:58.376Z,94452.22
2023-02-19T00:46:31.410Z,94468.53
2023-02-19T00:48:59.201Z,94463.03
2023-02-19T00:51:31.799Z,94473.84
2023-02-19T00:53:59.117Z,94468.00
2023-02-19T00:56:25.830Z,94471.88
2023-02-19T00:58:53.374Z,94474.69
2023-02-19T01:01:21.137Z,94464.72
2023-02-19T01:03:48.630Z,94462.78
2023-02-19T01:06:17.596Z,94463.22
2023-02-19T01:08:44.929Z,94469.50
2023-02-19T01:11:12.728Z,94463.41
2023-02-19T01:13:40.618Z,94465.06
2023-02-19T01:16:11.715Z,94464.41
2023-02-19T01:18:38.720Z,94456.97
2023-02-19T01:21:11.679Z,94447.28
2023-02-19T01:23:38.688Z,94450.44
2023-02-19T01:26:07.550Z,94448.44
2023-02-19T01:28:35.237Z,94443.31
2023-02-19T01:31:07.993Z,94435.50
2023-02-19T01:33:34.982Z,94430.41
2023-02-19T01:36:04.430Z,94430.34
2023-02-19T01:38:31.174Z,94427.59
2023-02-19T01:41:00.895Z,94424.47
2023-02-19T01:43:28.043Z,94410.84
2023-02-19T01:45:55.093Z,94420.19
2023-02-19T01:48:38.067Z,94418.97
2023-02-19T01:51:04.873Z,94413.19
2023-02-19T01:53:36.548Z,94414.00
2023-02-19T01:56:04.859Z,94408.94
2023-02-19T01:58:34.318Z,94403.06
2023-02-19T02:01:04.476Z,94385.88
2023-02-19T02:03:32.209Z,94385.03
2023-02-19T02:06:07.976Z,94380.66
2023-02-19T02:08:53.743Z,94375.69
2023-02-19T02:11:21.447Z,94382.44
2023-02-19T02:13:48.686Z,94397.66
2023-02-19T02:16:18.040Z,94401.53
2023-02-19T02:18:54.005Z,94401.25
2023-02-19T02:21:44.543Z,94410.34
2023-02-19T02:24:20.115Z,94420.53
2023-02-19T02:26:56.018Z,94421.72
2023-02-19T02:29:44.038Z,94431.09
2023-02-19T02:32:15.793Z,94429.53
2023-02-19T02:34:54.550Z,94429.94
2023-02-19T02:37:23.562Z,94428.38
2023-02-19T02:39:52.103Z,94424.13
2023-02-19T02:42:27.688Z,94421.38
2023-02-19T02:45:33.876Z,94412.81
2023-02-19T02:48:05.564Z,94390.56
2023-02-19T02:50:49.252Z,94394.09
2023-02-19T02:53:41.813Z,94400.72
2023-02-19T02:56:11.005Z,94397.22
2023-02-19T02:58:38.439Z,94400.25
2023-02-19T03:01:30.377Z,94412.38
2023-02-19T03:04:05.877Z,94407.75
2023-02-19T03:06:35.295Z,94418.31
2023-02-19T03:09:11.190Z,94426.06
2023-02-19T03:11:59.932Z,94424.97
2023-02-19T03:15:05.189Z,94412.47
2023-02-19T03:18:11.850Z,94395.31
2023-02-19T03:20:44.197Z,94406.19
2023-02-19T03:23:13.332Z,94394.84
2023-02-19T03:25:59.607Z,94388.22
2023-02-19T03:28:49.051Z,94398.31
2023-02-19T03:31:21.234Z,94394.03
2023-02-19T03:33:53.574Z,94372.84
2023-02-19T03:36:28.373Z,94352.22
2023-02-19T03:39:10.187Z,94354.16
2023-02-19T03:42:02.430Z,94340.91
2023-02-19T03:44:48.137Z,94340.91
2023-02-19T03:47:26.161Z,94362.34
2023-02-19T03:50:11.374Z,94366.25
2023-02-19T03:52:53.134Z,94365.53
2023-02-19T03:55:37.402Z,94354.22
2023-02-19T03:58:12.021Z,94361.22
2023-02-19T04:00:49.567Z,94370.94
2023-02-19T04:03:21.297Z,94377.22
2023-02-19T04:05:55.176Z,94381.53
2023-02-19T04:08:24.285Z,94378.03
2023-02-19T04:10:53.305Z,94381.53
2023-02-19T04:13:24.610Z,94382.72
2023-02-19T04:15:54.891Z,94381.94
2023-02-19T04:18:30.937Z,94391.31
2023-02-19T04:20:59.834Z,94395.63
2023-02-19T04:23:33.575Z,94389.03
2023-02-19T04:26:01.219Z,94394.91
2023-02-19T04:28:29.097Z,94390.56
2023-02-19T04:30:55.866Z,94388.63
2023-02-19T04:33:22.536Z,94394.91
2023-02-19T04:35:49.130Z,94392.13
2023-02-19T04:38:15.903Z,94397.16
2023-02-19T04:40:42.584Z,94386.28
2023-02-19T04:43:09.258Z,94394.91
2023-02-19T04:45:38.217Z,94386.22
2023-02-19T04:48:05.603Z,94391.72
2023-02-19T04:50:32.248Z,94388.63
2023-02-19T04:52:58.867Z,94386.28
2023-02-19T04:55:25.608Z,94383.91
2023-02-19T04:57:52.243Z,94382.00
2023-02-19T05:00:18.890Z,94382.75
2023-02-19T05:02:45.589Z,94384.66
2023-02-19T05:05:12.167Z,94386.22
2023-02-19T05:07:38.797Z,94394.44
2023-02-19T05:10:05.868Z,94395.59
2023-02-19T05:12:32.523Z,94390.97
2023-02-19T05:14:59.189Z,94397.63
2023-02-19T05:17:25.846Z,94398.34
2023-02-19T05:19:52.614Z,94404.56
2023-02-19T05:22:19.231Z,94403.78
2023-02-19T05:24:45.836Z,94402.88
2023-02-19T05:27:12.460Z,94399.84
2023-02-19T05:29:39.145Z,94400.19
2023-02-19T05:32:05.809Z,94413.16
2023-02-19T05:34:32.600Z,94412.78
2023-02-19T05:36:59.256Z,94417.84
2023-02-19T05:39:25.853Z,94423.31
2023-02-19T05:41:52.466Z,94433.06
2023-02-19T05:44:19.134Z,94438.97
2023-02-19T05:46:45.839Z,94435.81
2023-02-19T05:49:12.553Z,94437.81
2023-02-19T05:51:39.267Z,94437.78
2023-02-19T05:54:05.974Z,94437.78
2023-02-19T05:56:40.827Z,94438.97
2023-02-19T05:59:08.886Z,94443.69
2023-02-19T06:01:35.971Z,94447.97
2023-02-19T06:04:02.844Z,94441.72
2023-02-19T06:06:29.541Z,94442.84
2023-02-19T06:08:56.220Z,94449.50
2023-02-19T06:11:23.614Z,94456.97
2023-02-19T06:13:50.507Z,94458.16
2023-02-19T06:16:18.340Z,94455.38
2023-02-19T06:18:45.960Z,94455.34
2023-02-19T06:21:13.348Z,94463.13
2023-02-19T06:23:40.929Z,94469.81
2023-02-19T06:26:11.441Z,94468.16
2023-02-19T06:28:39.136Z,94462.38
2023-02-19T06:31:06.548Z,94465.09
2023-02-19T06:33:33.887Z,94473.66
2023-02-19T06:36:04.010Z,94470.91
2023-02-19T06:38:31.328Z,94485.75
2023-02-19T06:41:05.907Z,94487.25
2023-02-19T06:43:33.578Z,94489.56
2023-02-19T06:46:01.825Z,94497.38
2023-02-19T06:48:30.133Z,94497.41
2023-02-19T06:50:57.026Z,94499.72
2023-02-19T06:53:23.945Z,94502.16
2023-02-19T06:56:01.684Z,94513.63
2023-02-19T06:58:29.029Z,94507.94
2023-02-19T07:00:56.087Z,94513.81
2023-02-19T07:03:23.504Z,94527.78
2023-02-19T07:05:50.325Z,94519.38
2023-02-19T07:08:17.409Z,94520.13
2023-02-19T07:10:56.175Z,94524.47
2023-02-19T07:13:24.190Z,94522.56
2023-02-19T07:15:52.219Z,94533.44
2023-02-19T07:18:19.230Z,94551.41
2023-02-19T07:20:45.969Z,94558.63
2023-02-19T07:23:12.637Z,94546.06
2023-02-19T07:25:39.688Z,94548.53
2023-02-19T07:28:06.704Z,94556.38
2023-02-19T07:30:33.540Z,94559.09
2023-02-19T07:33:00.395Z,94572.47
2023-02-19T07:35:27.368Z,94564.38
2023-02-19T07:37:54.226Z,94573.53
2023-02-19T07:40:21.081Z,94572.75
2023-02-19T07:42:47.720Z,94572.09
2023-02-19T07:45:14.643Z,94572.47
2023-02-19T07:47:41.348Z,94575.25
2023-02-19T07:50:08.314Z,94578.06
2023-02-19T07:52:35.022Z,94581.34
2023-02-19T07:55:01.737Z,94582.44
2023-02-19T07:57:29.315Z,94592.94
2023-02-19T07:59:55.992Z,94597.19
2023-02-19T08:02:41.493Z,94607.78
2023-02-19T08:05:08.261Z,94612.09
2023-02-19T08:07:36.188Z,94603.47
2023-02-19T08:10:30.473Z,94613.25
2023-02-19T08:13:17.753Z,94609.38
2023-02-19T08:15:44.920Z,94621.88
2023-02-19T08:18:12.767Z,94619.66
2023-02-19T08:20:40.054Z,94620.44
2023-02-19T08:23:07.230Z,94625.47
2023-02-19T08:25:34.528Z,94632.13
2023-02-19T08:28:01.474Z,94636.19
2023-02-19T08:30:29.300Z,94636.19
2023-02-19T08:32:56.359Z,94641.59
2023-02-19T08:35:23.127Z,94650.94
2023-02-19T08:37:49.845Z,94653.22
2023-02-19T08:40:17.160Z,94652.31
2023-02-19T08:42:44.016Z,94651.63
2023-02-19T08:45:10.809Z,94654.00
2023-02-19T08:47:38.250Z,94669.03
2023-02-19T08:50:06.576Z,94668.91
2023-02-19T08:52:33.973Z,94679.34
2023-02-19T08:55:01.017Z,94681.44
2023-02-19T08:57:29.274Z,94687.97
2023-02-19T08:59:57.098Z,94682.66
2023-02-19T09:02:24.686Z,94682.47
2023-02-19T09:04:51.391Z,94687.22
2023-02-19T09:07:20.273Z,94697.31
2023-02-19T09:09:46.970Z,94687.78
2023-02-19T09:12:13.820Z,94693.91
2023-02-19T09:14:40.800Z,94696.44
2023-02-19T09:17:08.507Z,94688.31
2023-02-19T09:19:36.194Z,94694.63
2023-02-19T09:22:04.186Z,94688.69
2023-02-19T09:24:31.683Z,94683.22
2023-02-19T09:27:01.311Z,94679.22
2023-02-19T09:29:28.873Z,94680.75
2023-02-19T09:32:00.002Z,94677.41
2023-02-19T09:34:28.427Z,94675.94
2023-02-19T09:36:55.611Z,94684.56
2023-02-19T09:39:22.395Z,94681.19
2023-02-19T09:41:53.539Z,94689.13
2023-02-19T09:44:32.707Z,94677.03
2023-02-19T09:47:01.912Z,94681.53
2023-02-19T09:49:40.487Z,94681.44
2023-02-19T09:52:48.550Z,94684.19
2023-02-19T09:55:17.413Z,94693.50
2023-02-19T09:57:44.884Z,94688.09
2023-02-19T10:00:11.790Z,94698.69
2023-02-19T10:02:38.961Z,94702.97
2023-02-19T10:05:14.478Z,94699.88
2023-02-19T10:07:47.749Z,94702.59
2023-02-19T10:10:14.365Z,94701.84
2023-02-19T10:12:46.799Z,94705.75
2023-02-19T10:15:26.615Z,94709.28
2023-02-19T10:17:53.428Z,94710.44
2023-02-19T10:20:24.699Z,94708.50
2023-02-19T10:23:06.649Z,94712.41
2023-02-19T10:25:35.145Z,94716.31
2023-02-19T10:28:02.696Z,94726.88
2023-02-19T10:30:35.496Z,94720.25
2023-02-19T10:33:04.306Z,94727.66
2023-02-19T10:35:36.228Z,94730.78
2023-02-19T10:38:04.072Z,94732.38
2023-02-19T10:40:30.765Z,94723.22
2023-02-19T10:43:01.263Z,94714.72
2023-02-19T10:45:48.168Z,94717.88
2023-02-19T10:48:35.194Z,94708.06
2023-02-19T10:51:06.145Z,94715.53
2023-02-19T10:53:40.531Z,94701.81
2023-02-19T10:56:23.123Z,94701.69
2023-02-19T10:58:50.092Z,94702.22
2023-02-19T11:01:25.740Z,94708.88
2023-02-19T11:04:17.357Z,94710.97
2023-02-19T11:06:45.792Z,94710.47
2023-02-19T11:09:37.434Z,94705.50
2023-02-19T11:12:05.810Z,94724.88
2023-02-19T11:14:34.301Z,94730.56
2023-02-19T11:17:05.552Z,94734.72
2023-02-19T11:19:41.266Z,94737.84
2023-02-19T11:22:35.545Z,94729.63
2023-02-19T11:25:20.945Z,94720.63
2023-02-19T11:27:58.438Z,94715.91
2023-02-19T11:30:35.817Z,94716.72
2023-02-19T11:33:24.179Z,94697.94
2023-02-19T11:35:57.595Z,94699.88
2023-02-19T11:38:24.303Z,94681.47
2023-02-19T11:41:40.842Z,94685.00
2023-02-19T11:44:30.159Z,94687.31
2023-02-19T11:47:24.610Z,94690.06
2023-02-19T11:50:22.607Z,94690.06
2023-02-19T11:53:11.695Z,94699.84
2023-02-19T11:55:56.911Z,94687.66
2023-02-19T11:59:01.097Z,94694.66
2023-02-19T12:01:34.765Z,94699.41
2023-02-19T12:04:39.793Z,94694.78
2023-02-19T12:07:15.920Z,94698.31
2023-02-19T12:09:46.436Z,94695.06
2023-02-19T12:12:46.321Z,94698.59
2023-02-19T12:15:15.926Z,94702.16
2023-02-19T12:18:17.285Z,94699.41
2023-02-19T12:20:50.919Z,94696.75
2023-02-19T12:23:49.637Z,94697.13
2023-02-19T12:26:21.981Z,94690.41
2023-02-19T12:29:07.190Z,94688.81
2023-02-19T12:31:52.571Z,94683.69
2023-02-19T12:34:28.934Z,94689.31
2023-02-19T12:37:07.618Z,94698.81
2023-02-19T12:39:45.710Z,94698.88
2023-02-19T12:42:30.633Z,94703.06
2023-02-19T12:45:04.109Z,94700.44
2023-02-19T12:47:41.035Z,94700.94
2023-02-19T12:50:19.525Z,94699.00
2023-02-19T12:52:51.930Z,94692.63
2023-02-19T12:55:21.605Z,94683.66
2023-02-19T12:57:50.571Z,94683.56
2023-02-19T13:00:35.597Z,94694.16
2023-02-19T13:03:09.576Z,94684.47
2023-02-19T13:05:40.570Z,94699.16
2023-02-19T13:08:34.782Z,94713.63
2023-02-19T13:11:05.442Z,94714.97
2023-02-19T13:13:41.899Z,94714.16
2023-02-19T13:16:18.726Z,94696.63
2023-02-19T13:18:57.074Z,94705.69
2023-02-19T13:21:47.634Z,94691.56
2023-02-19T13:24:26.307Z,94697.69
2023-02-19T13:27:10.845Z,94690.09
2023-02-19T13:29:53.363Z,94695.16
2023-02-19T13:32:45.068Z,94695.94
2023-02-19T13:35:27.712Z,94703.69
2023-02-19T13:37:59.998Z,94706.72
2023-02-19T13:40:39.333Z,94706.38
2023-02-19T13:43:20.398Z,94713.44
2023-02-19T13:45:47.248Z,94700.03
2023-02-19T13:48:26.088Z,94711.00
2023-02-19T13:51:12.889Z,94699.59
2023-02-19T13:53:43.234Z,94698.75
2023-02-19T13:56:35.037Z,94704.28
2023-02-19T13:59:10.829Z,94698.72
2023-02-19T14:01:50.166Z,94709.19
2023-02-19T14:04:24.463Z,94709.72
2023-02-19T14:07:03.688Z,94710.31
2023-02-19T14:09:40.014Z,94701.88
2023-02-19T14:12:10.312Z,94698.34
2023-02-19T14:14:44.003Z,94696.50
2023-02-19T14:17:12.299Z,94696.09
2023-02-19T14:19:41.978Z,94692.59
2023-02-19T14:22:52.130Z,94696.78
2023-02-19T14:25:27.190Z,94714.00
2023-02-19T14:27:59.210Z,94708.41
2023-02-19T14:30:27.249Z,94710.59
2023-02-19T14:33:02.861Z,94709.44
2023-02-19T14:35:45.005Z,94706.34
2023-02-19T14:38:21.322Z,94711.13
2023-02-19T14:40:49.633Z,94714.44
2023-02-19T14:43:18.668Z,94707.38
2023-02-19T14:45:50.768Z,94713.69
2023-02-19T14:48:23.735Z,94710.25
2023-02-19T14:50:55.712Z,94717.66
2023-02-19T14:53:25.341Z,94723.34
2023-02-19T14:55:54.729Z,94719.88
2023-02-19T14:58:27.913Z,94719.97
2023-02-19T15:00:54.635Z,94729.28
2023-02-19T15:03:38.971Z,94736.88
2023-02-19T15:06:14.079Z,94740.13
2023-02-19T15:08:46.584Z,94733.94
2023-02-19T15:11:21.423Z,94746.22
2023-02-19T15:13:54.018Z,94754.75
2023-02-19T15:16:25.615Z,94758.84
2023-02-19T15:18:55.028Z,94756.22
2023-02-19T15:21:28.622Z,94744.03
2023-02-19T15:23:58.120Z,94744.13
2023-02-19T15:26:35.965Z,94739.88
2023-02-19T15:29:10.976Z,94735.13
2023-02-19T15:31:51.923Z,94739.09
2023-02-19T15:34:24.268Z,94737.09
2023-02-19T15:36:55.628Z,94740.31
2023-02-19T15:39:25.473Z,94733.00
2023-02-19T15:42:00.076Z,94726.94
2023-02-19T15:44:43.006Z,94727.59
2023-02-19T15:47:20.385Z,94730.38
2023-02-19T15:49:54.204Z,94727.84
2023-02-19T15:52:32.152Z,94737.94
2023-02-19T15:55:08.385Z,94742.16
2023-02-19T15:57:44.149Z,94742.13
2023-02-19T16:00:22.430Z,94745.63
2023-02-19T16:02:49.396Z,94750.03
2023-02-19T16:05:25.500Z,94760.81
2023-02-19T16:08:17.651Z,94762.28
2023-02-19T16:10:58.932Z,94774.41
2023-02-19T16:13:27.612Z,94769.06
2023-02-19T16:16:26.097Z,94779.81
2023-02-19T16:18:54.057Z,94790.03
2023-02-19T16:21:24.724Z,94793.84
2023-02-19T16:24:23.412Z,94791.22
2023-02-19T16:26:50.179Z,94788.03
2023-02-19T16:29:20.889Z,94784.41
2023-02-19T16:31:57.907Z,94784.84
2023-02-19T16:34:47.408Z,94783.69
2023-02-19T16:37:40.815Z,94789.94
2023-02-19T16:40:07.731Z,94800.47
2023-02-19T16:43:00.628Z,94805.03
2023-02-19T16:45:27.671Z,94813.50
2023-02-19T16:47:54.274Z,94800.53
2023-02-19T16:50:26.859Z,94797.28
2023-02-19T16:53:04.039Z,94802.75
2023-02-19T16:55:37.301Z,94812.53
2023-02-19T16:58:03.910Z,94805.88
2023-02-19T17:00:32.289Z,94802.22
2023-02-19T17:03:03.443Z,94816.03
2023-02-19T17:05:32.542Z,94810.94
2023-02-19T17:07:59.261Z,94818.72
2023-02-19T17:10:27.548Z,94810.44
2023-02-19T17:12:55.484Z,94804.84
2023-02-19T17:15:22.909Z,94799.44
2023-02-19T17:17:49.582Z,94796.66
2023-02-19T17:20:16.246Z,94783.69
2023-02-19T17:22:43.861Z,94791.53
2023-02-19T17:25:10.964Z,94791.53
2023-02-19T17:27:37.670Z,94794.19
2023-02-19T17:30:13.280Z,94786.41
2023-02-19T17:32:39.973Z,94785.34
2023-02-19T17:35:07.026Z,94793.28
2023-02-19T17:37:33.689Z,94813.28
2023-02-19T17:40:00.388Z,94809.47
2023-02-19T17:42:27.036Z,94807.81
2023-02-19T17:44:53.844Z,94815.78
2023-02-19T17:47:21.256Z,94818.84
2023-02-19T17:49:47.971Z,94821.16
2023-02-19T17:52:17.641Z,94830.09
2023-02-19T17:54:44.415Z,94831.25
2023-02-19T17:57:11.089Z,94824.69
2023-02-19T17:59:37.918Z,94824.44
2023-02-19T18:02:04.606Z,94831.88
2023-02-19T18:04:31.263Z,94840.47
2023-02-19T18:06:57.987Z,94834.09
2023-02-19T18:09:24.708Z,94840.44
2023-02-19T18:11:51.448Z,94842.47
2023-02-19T18:14:18.130Z,94851.19
2023-02-19T18:16:50.253Z,94861.19
2023-02-19T18:19:17.658Z,94864.94
2023-02-19T18:21:44.432Z,94858.72
2023-02-19T18:24:11.140Z,94868.84
2023-02-19T18:26:37.897Z,94873.75
2023-02-19T18:29:05.397Z,94874.94
2023-02-19T18:31:37.115Z,94869.28
2023-02-19T18:34:05.184Z,94866.66
2023-02-19T18:36:32.536Z,94869.75
2023-02-19T18:38:59.213Z,94870.63
2023-02-19T18:41:25.876Z,94874.00
2023-02-19T18:43:52.528Z,94881.19
2023-02-19T18:46:21.489Z,94883.91
2023-02-19T18:48:48.136Z,94891.81
2023-02-19T18:51:14.816Z,94884.34
2023-02-19T18:53:42.848Z,94886.75
2023-02-19T18:56:09.583Z,94889.31
2023-02-19T18:58:36.356Z,94893.84
2023-02-19T19:01:03.164Z,94899.84
2023-02-19T19:03:31.433Z,94882.56
2023-02-19T19:05:58.577Z,94887.13
2023-02-19T19:08:25.592Z,94890.31
2023-02-19T19:10:52.274Z,94894.75
2023-02-19T19:13:19.030Z,94888.13
2023-02-19T19:15:50.728Z,94892.22
2023-02-19T19:18:18.375Z,94889.03
2023-02-19T19:20:45.056Z,94894.75
2023-02-19T19:23:12.284Z,94897.06
2023-02-19T19:25:39.001Z,94895.38
2023-02-19T19:28:05.718Z,94890.38
2023-02-19T19:30:33.668Z,94888.06
2023-02-19T19:33:01.737Z,94881.03
2023-02-19T19:35:28.642Z,94882.59
2023-02-19T19:37:55.330Z,94886.06
2023-02-19T19:40:21.978Z,94902.63
2023-02-19T19:42:52.170Z,94899.66
2023-02-19T19:45:18.855Z,94904.19
2023-02-19T19:47:45.753Z,94911.84
2023-02-19T19:50:14.414Z,94906.28
2023-02-19T19:52:41.260Z,94909.91
2023-02-19T19:55:08.261Z,94916.88
2023-02-19T19:57:34.923Z,94922.34
2023-02-19T20:00:01.745Z,94917.91
2023-02-19T20:02:28.485Z,94922.38
2023-02-19T20:04:55.225Z,94930.69
2023-02-19T20:07:21.853Z,94934.38
2023-02-19T20:09:49.504Z,94922.94
2023-02-19T20:12:16.814Z,94926.09
2023-02-19T20:14:45.747Z,94923.53
2023-02-19T20:17:13.152Z,94930.06
2023-02-19T20:19:39.902Z,94943.09
2023-02-19T20:22:06.656Z,94942.13
2023-02-19T20:24:33.423Z,94934.97
2023-02-19T20:27:02.543Z,94931.78
2023-02-19T20:29:34.802Z,94932.13
2023-02-19T20:32:03.443Z,94924.34
2023-02-19T20:34:31.254Z,94938.00
2023-02-19T20:36:58.050Z,94930.63
2023-02-19T20:39:28.926Z,94936.38
2023-02-19T20:41:57.469Z,94943.03
2023-02-19T20:44:25.201Z,94943.22
2023-02-19T20:46:52.577Z,94947.63
2023-02-19T20:49:22.243Z,94943.25
2023-02-19T20:51:58.162Z,94949.81
2023-02-19T20:54:28.210Z,94941.28
2023-02-19T20:56:57.512Z,94935.16
2023-02-19T20:59:30.877Z,94936.84
2023-02-19T21:02:04.924Z,94922.94
2023-02-19T21:04:31.844Z,94932.25
2023-02-19T21:06:58.973Z,94926.84
2023-02-19T21:09:25.630Z,94929.53
2023-02-19T21:11:53.044Z,94934.03
2023-02-19T21:14:20.210Z,94927.47
2023-02-19T21:16:46.839Z,94933.66
2023-02-19T21:19:13.553Z,94935.41
2023-02-19T21:21:40.481Z,94937.72
2023-02-19T21:24:07.516Z,94931.28
2023-02-19T21:26:36.273Z,94936.88
2023-02-19T21:29:04.476Z,94930.31
2023-02-19T21:31:39.432Z,94936.63
2023-02-19T21:34:08.441Z,94947.50
2023-02-19T21:36:36.088Z,94941.78
2023-02-19T21:39:05.116Z,94948.88
2023-02-19T21:41:31.934Z,94948.09
2023-02-19T21:43:59.407Z,94944.31
2023-02-19T21:46:26.688Z,94950.91
2023-02-19T21:48:55.250Z,94939.59
2023-02-19T21:51:37.829Z,94946.34
2023-02-19T21:54:05.457Z,94943.38
2023-02-19T21:56:36.090Z,94950.16
2023-02-19T21:59:03.529Z,94953.53
2023-02-19T22:01:35.421Z,94955.53
2023-02-19T22:04:02.142Z,94956.75
2023-02-19T22:06:30.817Z,94953.97
2023-02-19T22:08:58.933Z,94952.00
2023-02-19T22:11:25.782Z,94945.97
2023-02-19T22:13:52.506Z,94948.69
2023-02-19T22:16:19.411Z,94952.81
2023-02-19T22:18:50.746Z,94949.47
2023-02-19T22:21:17.722Z,94954.84
2023-02-19T22:23:49.542Z,94950.44
2023-02-19T22:26:23.809Z,94955.06
2023-02-19T22:28:50.903Z,94957.13
2023-02-19T22:31:20.777Z,94953.63
2023-02-19T22:33:47.524Z,94953.19
2023-02-19T22:36:23.204Z,94960.06
2023-02-19T22:38:50.252Z,94955.75
2023-02-19T22:41:18.085Z,94954.41
2023-02-19T22:43:45.596Z,94960.78
2023-02-19T22:46:15.980Z,94957.34
2023-02-19T22:48:42.770Z,94959.00
2023-02-19T22:51:15.202Z,94958.00
2023-02-19T22:53:45.393Z,94954.91
2023-02-19T22:56:13.963Z,94948.63
2023-02-19T22:58:41.070Z,94959.94
2023-02-19T23:01:08.793Z,94961.22
2023-02-19T23:03:44.183Z,94965.38
2023-02-19T23:06:11.159Z,94965.50
2023-02-19T23:08:37.962Z,94970.25
2023-02-19T23:11:04.669Z,94977.16
2023-02-19T23:13:31.303Z,94991.91
2023-02-19T23:15:57.975Z,94990.53
2023-02-19T23:18:24.598Z,94997.19
2023-02-19T23:20:51.231Z,94994.91
2023-02-19T23:23:17.902Z,94994.97
2023-02-19T23:25:44.568Z,94987.38
2023-02-19T23:28:11.280Z,94986.03
2023-02-19T23:30:38.045Z,94971.25
2023-02-19T23:33:04.770Z,94974.19
2023-02-19T23:35:32.007Z,94972.63
2023-02-19T23:37:59.238Z,94976.50
2023-02-19T23:40:25.894Z,94975.28
2023-02-19T23:42:52.712Z,94970.25
2023-02-19T23:45:19.575Z,94973.06
2023-02-19T23:47:46.251Z,94985.03
2023-02-19T23:50:14.635Z,94987.69
2023-02-19T23:52:41.542Z,94985.44
2023-02-19T23:55:08.478Z,94988.91
2023-02-19T23:57:35.262Z,94994.72
